sensor_id;sensor_type;location;lat;lon;timestamp;P1;durP1;ratioP1;P2;durP2;ratioP2
11334;SDS011;5722;42.620;23.374;2023-03-23T00:02:03;34.93;;;24.57;;
11334;SDS011;5722;42.620;23.374;2023-03-23T00:04:34;46.43;;;29.67;;
11334;SDS011;5722;42.620;23.374;2023-03-23T00:07:06;42.50;;;26.53;;
11334;SDS011;5722;42.620;23.374;2023-03-23T00:09:38;32.13;;;21.53;;
11334;SDS011;5722;42.620;23.374;2023-03-23T00:12:21;24.77;;;17.90;;
11334;SDS011;5722;42.620;23.374;2023-03-23T00:14:58;21.27;;;15.13;;
11334;SDS011;5722;42.620;23.374;2023-03-23T00:17:26;20.07;;;14.53;;
11334;SDS011;5722;42.620;23.374;2023-03-23T00:19:58;20.97;;;15.03;;
11334;SDS011;5722;42.620;23.374;2023-03-23T00:22:33;32.30;;;21.53;;
11334;SDS011;5722;42.620;23.374;2023-03-23T00:25:02;41.10;;;26.67;;
11334;SDS011;5722;42.620;23.374;2023-03-23T00:27:33;27.77;;;18.93;;
11334;SDS011;5722;42.620;23.374;2023-03-23T00:30:06;21.83;;;14.97;;
11334;SDS011;5722;42.620;23.374;2023-03-23T00:32:48;19.13;;;13.37;;
11334;SDS011;5722;42.620;23.374;2023-03-23T00:35:20;18.37;;;13.70;;
11334;SDS011;5722;42.620;23.374;2023-03-23T00:37:50;17.13;;;12.47;;
11334;SDS011;5722;42.620;23.374;2023-03-23T00:40:34;15.17;;;11.57;;
11334;SDS011;5722;42.620;23.374;2023-03-23T00:43:07;21.33;;;15.13;;
11334;SDS011;5722;42.620;23.374;2023-03-23T00:51:32;16.60;;;11.33;;
11334;SDS011;5722;42.620;23.374;2023-03-23T00:54:00;16.63;;;11.50;;
11334;SDS011;5722;42.620;23.374;2023-03-23T00:56:49;23.60;;;11.57;;
11334;SDS011;5722;42.620;23.374;2023-03-23T00:59:25;18.50;;;12.07;;
11334;SDS011;5722;42.620;23.374;2023-03-23T01:01:54;18.57;;;12.57;;
11334;SDS011;5722;42.620;23.374;2023-03-23T01:04:25;18.23;;;12.37;;
11334;SDS011;5722;42.620;23.374;2023-03-23T01:07:01;19.33;;;12.57;;
11334;SDS011;5722;42.620;23.374;2023-03-23T01:09:32;17.77;;;12.23;;
11334;SDS011;5722;42.620;23.374;2023-03-23T01:12:05;17.77;;;12.33;;
11334;SDS011;5722;42.620;23.374;2023-03-23T01:14:32;18.87;;;12.30;;
11334;SDS011;5722;42.620;23.374;2023-03-23T01:17:03;17.23;;;12.03;;
11334;SDS011;5722;42.620;23.374;2023-03-23T01:19:34;16.33;;;12.07;;
11334;SDS011;5722;42.620;23.374;2023-03-23T01:24:53;18.93;;;13.20;;
11334;SDS011;5722;42.620;23.374;2023-03-23T01:27:23;18.87;;;13.87;;
11334;SDS011;5722;42.620;23.374;2023-03-23T01:30:15;20.63;;;15.23;;
11334;SDS011;5722;42.620;23.374;2023-03-23T01:32:54;33.80;;;23.17;;
11334;SDS011;5722;42.620;23.374;2023-03-23T01:35:25;29.77;;;21.03;;
11334;SDS011;5722;42.620;23.374;2023-03-23T01:37:53;34.07;;;23.73;;
11334;SDS011;5722;42.620;23.374;2023-03-23T01:40:34;38.50;;;27.53;;
11334;SDS011;5722;42.620;23.374;2023-03-23T01:43:08;43.30;;;29.53;;
11334;SDS011;5722;42.620;23.374;2023-03-23T01:45:41;44.40;;;31.40;;
11334;SDS011;5722;42.620;23.374;2023-03-23T01:48:15;44.10;;;28.77;;
11334;SDS011;5722;42.620;23.374;2023-03-23T01:50:52;39.43;;;26.17;;
11334;SDS011;5722;42.620;23.374;2023-03-23T01:53:34;32.97;;;23.97;;
11334;SDS011;5722;42.620;23.374;2023-03-23T01:59:04;34.47;;;24.90;;
11334;SDS011;5722;42.620;23.374;2023-03-23T02:04:15;31.13;;;23.27;;
11334;SDS011;5722;42.620;23.374;2023-03-23T02:06:46;31.97;;;23.10;;
11334;SDS011;5722;42.620;23.374;2023-03-23T02:09:27;33.57;;;23.33;;
11334;SDS011;5722;42.620;23.374;2023-03-23T02:11:59;29.00;;;22.10;;
11334;SDS011;5722;42.620;23.374;2023-03-23T02:14:37;31.10;;;22.73;;
11334;SDS011;5722;42.620;23.374;2023-03-23T02:17:05;27.77;;;20.37;;
11334;SDS011;5722;42.620;23.374;2023-03-23T02:19:53;29.53;;;20.30;;
11334;SDS011;5722;42.620;23.374;2023-03-23T02:25:27;33.73;;;23.47;;
11334;SDS011;5722;42.620;23.374;2023-03-23T02:31:18;40.87;;;28.77;;
11334;SDS011;5722;42.620;23.374;2023-03-23T02:33:50;32.60;;;24.87;;
11334;SDS011;5722;42.620;23.374;2023-03-23T02:36:28;27.40;;;19.63;;
11334;SDS011;5722;42.620;23.374;2023-03-23T02:39:12;26.47;;;20.20;;
11334;SDS011;5722;42.620;23.374;2023-03-23T02:41:42;24.00;;;18.80;;
11334;SDS011;5722;42.620;23.374;2023-03-23T02:44:18;23.33;;;17.77;;
11334;SDS011;5722;42.620;23.374;2023-03-23T02:46:51;20.20;;;16.53;;
11334;SDS011;5722;42.620;23.374;2023-03-23T02:49:37;19.73;;;15.70;;
11334;SDS011;5722;42.620;23.374;2023-03-23T02:52:09;18.87;;;15.17;;
11334;SDS011;5722;42.620;23.374;2023-03-23T02:54:43;21.40;;;15.30;;
11334;SDS011;5722;42.620;23.374;2023-03-23T02:57:18;20.77;;;16.50;;
11334;SDS011;5722;42.620;23.374;2023-03-23T02:59:49;21.70;;;15.07;;
11334;SDS011;5722;42.620;23.374;2023-03-23T03:02:16;18.23;;;14.20;;
11334;SDS011;5722;42.620;23.374;2023-03-23T03:04:52;16.77;;;14.17;;
11334;SDS011;5722;42.620;23.374;2023-03-23T03:07:30;18.27;;;13.70;;
11334;SDS011;5722;42.620;23.374;2023-03-23T03:10:19;19.73;;;15.07;;
11334;SDS011;5722;42.620;23.374;2023-03-23T03:12:55;22.73;;;18.07;;
11334;SDS011;5722;42.620;23.374;2023-03-23T03:15:46;19.97;;;16.70;;
11334;SDS011;5722;42.620;23.374;2023-03-23T03:18:31;21.87;;;16.47;;
11334;SDS011;5722;42.620;23.374;2023-03-23T03:21:04;21.50;;;16.63;;
11334;SDS011;5722;42.620;23.374;2023-03-23T03:23:36;23.20;;;17.03;;
11334;SDS011;5722;42.620;23.374;2023-03-23T03:26:10;18.27;;;14.83;;
11334;SDS011;5722;42.620;23.374;2023-03-23T03:28:42;22.00;;;15.17;;
11334;SDS011;5722;42.620;23.374;2023-03-23T03:31:15;22.87;;;18.63;;
11334;SDS011;5722;42.620;23.374;2023-03-23T03:33:48;24.70;;;19.17;;
11334;SDS011;5722;42.620;23.374;2023-03-23T03:36:34;25.53;;;17.73;;
11334;SDS011;5722;42.620;23.374;2023-03-23T03:39:05;24.47;;;17.83;;
11334;SDS011;5722;42.620;23.374;2023-03-23T03:41:38;27.67;;;20.20;;
11334;SDS011;5722;42.620;23.374;2023-03-23T03:44:06;24.33;;;17.23;;
11334;SDS011;5722;42.620;23.374;2023-03-23T03:46:34;23.80;;;15.93;;
11334;SDS011;5722;42.620;23.374;2023-03-23T03:49:11;21.70;;;16.40;;
11334;SDS011;5722;42.620;23.374;2023-03-23T03:51:46;22.40;;;16.70;;
11334;SDS011;5722;42.620;23.374;2023-03-23T03:54:16;20.73;;;16.40;;
11334;SDS011;5722;42.620;23.374;2023-03-23T03:56:51;22.37;;;17.53;;
11334;SDS011;5722;42.620;23.374;2023-03-23T03:59:24;22.83;;;18.10;;
11334;SDS011;5722;42.620;23.374;2023-03-23T04:01:58;21.53;;;16.77;;
11334;SDS011;5722;42.620;23.374;2023-03-23T04:04:46;20.03;;;14.93;;
11334;SDS011;5722;42.620;23.374;2023-03-23T04:10:03;16.37;;;13.20;;
11334;SDS011;5722;42.620;23.374;2023-03-23T04:12:39;15.67;;;12.50;;
11334;SDS011;5722;42.620;23.374;2023-03-23T04:15:08;17.27;;;13.00;;
11334;SDS011;5722;42.620;23.374;2023-03-23T04:17:39;16.80;;;12.80;;
11334;SDS011;5722;42.620;23.374;2023-03-23T04:20:08;15.43;;;12.23;;
11334;SDS011;5722;42.620;23.374;2023-03-23T04:22:48;14.60;;;12.10;;
11334;SDS011;5722;42.620;23.374;2023-03-23T04:25:22;14.60;;;11.90;;
11334;SDS011;5722;42.620;23.374;2023-03-23T04:27:50;13.70;;;11.97;;
11334;SDS011;5722;42.620;23.374;2023-03-23T04:30:20;14.40;;;12.07;;
11334;SDS011;5722;42.620;23.374;2023-03-23T04:32:53;13.57;;;11.30;;
11334;SDS011;5722;42.620;23.374;2023-03-23T04:35:34;34.43;;;23.70;;
11334;SDS011;5722;42.620;23.374;2023-03-23T04:38:08;38.50;;;23.90;;
11334;SDS011;5722;42.620;23.374;2023-03-23T04:40:42;32.70;;;21.83;;
11334;SDS011;5722;42.620;23.374;2023-03-23T04:43:10;31.77;;;21.77;;
11334;SDS011;5722;42.620;23.374;2023-03-23T04:45:40;28.33;;;19.00;;
11334;SDS011;5722;42.620;23.374;2023-03-23T04:48:11;18.77;;;14.23;;
11334;SDS011;5722;42.620;23.374;2023-03-23T04:50:40;13.83;;;12.00;;
11334;SDS011;5722;42.620;23.374;2023-03-23T04:53:07;13.90;;;11.40;;
11334;SDS011;5722;42.620;23.374;2023-03-23T04:55:39;20.73;;;15.90;;
11334;SDS011;5722;42.620;23.374;2023-03-23T06:58:26;15.17;;;11.27;;
11334;SDS011;5722;42.620;23.374;2023-03-23T07:01:08;12.10;;;9.53;;
11334;SDS011;5722;42.620;23.374;2023-03-23T07:03:52;12.53;;;10.40;;
11334;SDS011;5722;42.620;23.374;2023-03-23T07:06:32;22.53;;;18.63;;
11334;SDS011;5722;42.620;23.374;2023-03-23T07:09:19;21.87;;;17.73;;
11334;SDS011;5722;42.620;23.374;2023-03-23T07:12:15;20.60;;;17.07;;
11334;SDS011;5722;42.620;23.374;2023-03-23T07:35:04;20.60;;;16.57;;
11334;SDS011;5722;42.620;23.374;2023-03-23T07:37:42;27.77;;;16.40;;
11334;SDS011;5722;42.620;23.374;2023-03-23T07:40:14;28.30;;;20.40;;
11334;SDS011;5722;42.620;23.374;2023-03-23T07:42:51;26.87;;;18.63;;
11334;SDS011;5722;42.620;23.374;2023-03-23T07:45:27;22.83;;;19.17;;
11334;SDS011;5722;42.620;23.374;2023-03-23T07:48:13;24.20;;;20.07;;
11334;SDS011;5722;42.620;23.374;2023-03-23T09:07:07;8.27;;;5.80;;
11334;SDS011;5722;42.620;23.374;2023-03-23T09:09:56;20.57;;;7.97;;
11334;SDS011;5722;42.620;23.374;2023-03-23T09:12:29;9.90;;;6.97;;
11334;SDS011;5722;42.620;23.374;2023-03-23T09:15:21;9.00;;;7.43;;
11334;SDS011;5722;42.620;23.374;2023-03-23T09:18:06;8.83;;;7.27;;
11334;SDS011;5722;42.620;23.374;2023-03-23T09:46:40;7.57;;;6.57;;
11334;SDS011;5722;42.620;23.374;2023-03-23T09:49:32;8.30;;;5.50;;
11334;SDS011;5722;42.620;23.374;2023-03-23T09:52:16;8.83;;;6.90;;
11334;SDS011;5722;42.620;23.374;2023-03-23T09:54:50;7.30;;;6.60;;
11334;SDS011;5722;42.620;23.374;2023-03-23T09:57:42;10.03;;;6.60;;
11334;SDS011;5722;42.620;23.374;2023-03-23T10:00:34;8.60;;;6.50;;
11334;SDS011;5722;42.620;23.374;2023-03-23T10:06:11;6.93;;;6.20;;
11334;SDS011;5722;42.620;23.374;2023-03-23T10:11:45;6.57;;;5.93;;
11334;SDS011;5722;42.620;23.374;2023-03-23T10:17:26;6.87;;;6.17;;
11334;SDS011;5722;42.620;23.374;2023-03-23T10:20:24;6.97;;;5.90;;
11334;SDS011;5722;42.620;23.374;2023-03-23T10:42:40;7.87;;;6.23;;
11334;SDS011;5722;42.620;23.374;2023-03-23T10:45:16;7.20;;;6.50;;
11334;SDS011;5722;42.620;23.374;2023-03-23T10:48:06;6.83;;;6.13;;
11334;SDS011;5722;42.620;23.374;2023-03-23T10:50:54;13.37;;;5.93;;
11334;SDS011;5722;42.620;23.374;2023-03-23T10:53:51;12.37;;;6.23;;
11334;SDS011;5722;42.620;23.374;2023-03-23T10:56:39;7.13;;;6.43;;
11334;SDS011;5722;42.620;23.374;2023-03-23T11:05:32;7.17;;;6.47;;
11334;SDS011;5722;42.620;23.374;2023-03-23T11:08:26;8.97;;;6.50;;
11334;SDS011;5722;42.620;23.374;2023-03-23T11:11:09;7.03;;;6.20;;
11334;SDS011;5722;42.620;23.374;2023-03-23T11:13:56;7.63;;;6.37;;
11334;SDS011;5722;42.620;23.374;2023-03-23T11:31:28;7.97;;;6.23;;
11334;SDS011;5722;42.620;23.374;2023-03-23T11:37:09;7.13;;;6.27;;
11334;SDS011;5722;42.620;23.374;2023-03-23T11:45:50;6.80;;;5.90;;
11334;SDS011;5722;42.620;23.374;2023-03-23T12:24:39;10.17;;;6.57;;
11334;SDS011;5722;42.620;23.374;2023-03-23T12:27:28;11.20;;;5.93;;
11334;SDS011;5722;42.620;23.374;2023-03-23T12:30:23;8.70;;;6.37;;
11334;SDS011;5722;42.620;23.374;2023-03-23T12:33:24;11.73;;;6.23;;
11334;SDS011;5722;42.620;23.374;2023-03-23T12:38:58;8.30;;;6.40;;
11334;SDS011;5722;42.620;23.374;2023-03-23T13:22:35;7.28;;;5.75;;
11334;SDS011;5722;42.620;23.374;2023-03-23T13:25:28;6.43;;;5.57;;
11334;SDS011;5722;42.620;23.374;2023-03-23T13:28:29;6.82;;;6.13;;
11334;SDS011;5722;42.620;23.374;2023-03-23T13:31:27;7.88;;;6.10;;
11334;SDS011;5722;42.620;23.374;2023-03-23T13:34:15;6.20;;;5.50;;
11334;SDS011;5722;42.620;23.374;2023-03-23T16:36:18;11.07;;;7.10;;
11334;SDS011;5722;42.620;23.374;2023-03-23T16:38:48;9.37;;;7.53;;
11334;SDS011;5722;42.620;23.374;2023-03-23T16:44:32;15.90;;;9.57;;
11334;SDS011;5722;42.620;23.374;2023-03-23T16:47:38;20.73;;;12.17;;
11334;SDS011;5722;42.620;23.374;2023-03-23T16:50:22;17.77;;;10.90;;
11334;SDS011;5722;42.620;23.374;2023-03-23T17:24:36;12.53;;;10.07;;
11334;SDS011;5722;42.620;23.374;2023-03-23T17:27:04;12.87;;;10.03;;
11334;SDS011;5722;42.620;23.374;2023-03-23T17:29:38;12.47;;;10.77;;
11334;SDS011;5722;42.620;23.374;2023-03-23T17:32:12;12.47;;;10.70;;
11334;SDS011;5722;42.620;23.374;2023-03-23T17:34:47;15.27;;;11.33;;
11334;SDS011;5722;42.620;23.374;2023-03-23T17:37:26;13.57;;;9.57;;
11334;SDS011;5722;42.620;23.374;2023-03-23T17:40:45;11.67;;;9.97;;
11334;SDS011;5722;42.620;23.374;2023-03-23T17:43:14;13.30;;;10.10;;
11334;SDS011;5722;42.620;23.374;2023-03-23T17:46:03;19.70;;;10.87;;
11334;SDS011;5722;42.620;23.374;2023-03-23T17:48:38;14.97;;;11.83;;
11334;SDS011;5722;42.620;23.374;2023-03-23T17:51:34;15.97;;;11.53;;
11334;SDS011;5722;42.620;23.374;2023-03-23T17:54:19;14.03;;;10.20;;
11334;SDS011;5722;42.620;23.374;2023-03-23T18:37:43;13.87;;;9.93;;
11334;SDS011;5722;42.620;23.374;2023-03-23T18:40:18;17.63;;;11.50;;
11334;SDS011;5722;42.620;23.374;2023-03-23T18:42:52;15.97;;;10.90;;
11334;SDS011;5722;42.620;23.374;2023-03-23T18:45:29;14.53;;;11.23;;
11334;SDS011;5722;42.620;23.374;2023-03-23T18:48:29;15.17;;;10.63;;
11334;SDS011;5722;42.620;23.374;2023-03-23T18:51:08;12.23;;;9.33;;
11334;SDS011;5722;42.620;23.374;2023-03-23T18:59:43;7.30;;;6.40;;
11334;SDS011;5722;42.620;23.374;2023-03-23T19:02:12;34.37;;;7.77;;
11334;SDS011;5722;42.620;23.374;2023-03-23T19:04:56;7.13;;;6.00;;
11334;SDS011;5722;42.620;23.374;2023-03-23T19:07:35;6.53;;;5.80;;
11334;SDS011;5722;42.620;23.374;2023-03-23T19:22:13;10.10;;;7.40;;
11334;SDS011;5722;42.620;23.374;2023-03-23T19:24:58;9.37;;;7.93;;
11334;SDS011;5722;42.620;23.374;2023-03-23T19:27:36;7.90;;;7.10;;
11334;SDS011;5722;42.620;23.374;2023-03-23T19:33:33;11.90;;;8.20;;
11334;SDS011;5722;42.620;23.374;2023-03-23T19:36:10;9.40;;;7.90;;
11334;SDS011;5722;42.620;23.374;2023-03-23T19:45:10;9.47;;;7.77;;
11334;SDS011;5722;42.620;23.374;2023-03-23T19:47:39;8.83;;;7.67;;
11334;SDS011;5722;42.620;23.374;2023-03-23T19:50:24;9.57;;;8.10;;
11334;SDS011;5722;42.620;23.374;2023-03-23T19:53:05;12.13;;;8.40;;
11334;SDS011;5722;42.620;23.374;2023-03-23T19:55:47;10.53;;;8.67;;
11334;SDS011;5722;42.620;23.374;2023-03-23T19:58:30;9.53;;;8.33;;
11334;SDS011;5722;42.620;23.374;2023-03-23T20:12:45;11.27;;;8.73;;
11334;SDS011;5722;42.620;23.374;2023-03-23T20:15:29;11.90;;;9.20;;
11334;SDS011;5722;42.620;23.374;2023-03-23T20:18:08;10.50;;;9.13;;
11334;SDS011;5722;42.620;23.374;2023-03-23T20:20:44;11.33;;;9.73;;
11334;SDS011;5722;42.620;23.374;2023-03-23T20:26:40;11.97;;;9.27;;
11334;SDS011;5722;42.620;23.374;2023-03-23T22:02:43;42.83;;;25.67;;
11334;SDS011;5722;42.620;23.374;2023-03-23T22:05:35;21.77;;;15.00;;
11334;SDS011;5722;42.620;23.374;2023-03-23T22:08:12;15.97;;;12.17;;
11334;SDS011;5722;42.620;23.374;2023-03-23T22:10:41;15.63;;;10.70;;
11334;SDS011;5722;42.620;23.374;2023-03-23T22:13:13;14.33;;;9.20;;
11334;SDS011;5722;42.620;23.374;2023-03-23T22:16:03;13.03;;;8.97;;
11334;SDS011;5722;42.620;23.374;2023-03-23T22:19:03;33.30;;;10.00;;
11334;SDS011;5722;42.620;23.374;2023-03-23T22:21:45;20.33;;;9.83;;
11334;SDS011;5722;42.620;23.374;2023-03-23T22:24:26;12.07;;;8.80;;
11334;SDS011;5722;42.620;23.374;2023-03-23T22:27:01;15.27;;;11.30;;
11334;SDS011;5722;42.620;23.374;2023-03-23T22:29:30;20.10;;;13.33;;
11334;SDS011;5722;42.620;23.374;2023-03-23T22:32:10;13.70;;;9.17;;
11334;SDS011;5722;42.620;23.374;2023-03-23T22:37:53;13.23;;;9.17;;
11334;SDS011;5722;42.620;23.374;2023-03-23T22:40:22;12.87;;;9.80;;
11334;SDS011;5722;42.620;23.374;2023-03-23T22:42:50;16.50;;;10.83;;
11334;SDS011;5722;42.620;23.374;2023-03-23T22:45:43;29.87;;;16.70;;
11334;SDS011;5722;42.620;23.374;2023-03-23T22:48:19;35.03;;;21.73;;
11334;SDS011;5722;42.620;23.374;2023-03-23T22:50:52;32.13;;;19.27;;
11334;SDS011;5722;42.620;23.374;2023-03-23T22:53:28;26.97;;;15.93;;
11334;SDS011;5722;42.620;23.374;2023-03-23T22:59:03;46.57;;;24.47;;
11334;SDS011;5722;42.620;23.374;2023-03-23T23:01:36;41.43;;;24.57;;
11334;SDS011;5722;42.620;23.374;2023-03-23T23:07:20;29.80;;;18.03;;
11334;SDS011;5722;42.620;23.374;2023-03-23T23:10:08;28.87;;;17.67;;
11334;SDS011;5722;42.620;23.374;2023-03-23T23:12:35;29.83;;;16.17;;
11334;SDS011;5722;42.620;23.374;2023-03-23T23:15:11;28.37;;;17.77;;
11334;SDS011;5722;42.620;23.374;2023-03-23T23:17:42;30.13;;;19.40;;
11334;SDS011;5722;42.620;23.374;2023-03-23T23:20:28;30.00;;;18.73;;
11334;SDS011;5722;42.620;23.374;2023-03-23T23:23:03;25.97;;;16.30;;
11334;SDS011;5722;42.620;23.374;2023-03-23T23:25:38;27.83;;;15.97;;
11334;SDS011;5722;42.620;23.374;2023-03-23T23:28:14;27.40;;;18.70;;
11334;SDS011;5722;42.620;23.374;2023-03-23T23:30:47;31.97;;;19.33;;
11334;SDS011;5722;42.620;23.374;2023-03-23T23:33:17;33.80;;;20.60;;
11334;SDS011;5722;42.620;23.374;2023-03-23T23:35:50;29.83;;;18.47;;
11334;SDS011;5722;42.620;23.374;2023-03-23T23:38:46;23.87;;;16.27;;
11334;SDS011;5722;42.620;23.374;2023-03-23T23:41:32;23.17;;;14.67;;
11334;SDS011;5722;42.620;23.374;2023-03-23T23:44:00;26.83;;;17.10;;
11334;SDS011;5722;42.620;23.374;2023-03-23T23:46:40;27.10;;;15.77;;
11334;SDS011;5722;42.620;23.374;2023-03-23T23:49:14;29.63;;;15.37;;
11334;SDS011;5722;42.620;23.374;2023-03-23T23:51:49;30.00;;;19.20;;
11334;SDS011;5722;42.620;23.374;2023-03-23T23:54:27;30.87;;;21.00;;
11334;SDS011;5722;42.620;23.374;2023-03-23T23:57:03;22.60;;;15.17;;
11334;SDS011;5722;42.620;23.374;2023-03-23T23:59:32;17.80;;;13.53;;
